sensor_id;sensor_type;location;lat;lon;timestamp;P1;durP1;ratioP1;P2;durP2;ratioP2
63087;SDS011;49173;43.164;27.786;2023-01-01T00:00:59;45.13;;;28.65;;
63087;SDS011;49173;43.164;27.786;2023-01-01T00:03:29;42.85;;;28.17;;
63087;SDS011;49173;43.164;27.786;2023-01-01T00:05:55;42.83;;;26.85;;
63087;SDS011;49173;43.164;27.786;2023-01-01T00:08:21;37.40;;;21.70;;
63087;SDS011;49173;43.164;27.786;2023-01-01T00:10:46;39.33;;;26.38;;
63087;SDS011;49173;43.164;27.786;2023-01-01T00:13:12;51.03;;;30.58;;
63087;SDS011;49173;43.164;27.786;2023-01-01T00:15:39;58.40;;;34.83;;
63087;SDS011;49173;43.164;27.786;2023-01-01T00:18:04;56.45;;;34.83;;
63087;SDS011;49173;43.164;27.786;2023-01-01T00:20:30;48.35;;;32.20;;
63087;SDS011;49173;43.164;27.786;2023-01-01T00:22:56;74.93;;;46.00;;
63087;SDS011;49173;43.164;27.786;2023-01-01T00:25:22;61.03;;;37.38;;
63087;SDS011;49173;43.164;27.786;2023-01-01T00:27:49;53.72;;;35.58;;
63087;SDS011;49173;43.164;27.786;2023-01-01T00:30:15;61.90;;;38.00;;
63087;SDS011;49173;43.164;27.786;2023-01-01T00:32:41;50.03;;;36.20;;
63087;SDS011;49173;43.164;27.786;2023-01-01T00:35:07;55.40;;;35.70;;
63087;SDS011;49173;43.164;27.786;2023-01-01T00:37:33;49.17;;;33.78;;
63087;SDS011;49173;43.164;27.786;2023-01-01T00:39:59;44.03;;;27.30;;
63087;SDS011;49173;43.164;27.786;2023-01-01T00:42:25;33.58;;;23.25;;
63087;SDS011;49173;43.164;27.786;2023-01-01T00:44:50;30.27;;;19.35;;
63087;SDS011;49173;43.164;27.786;2023-01-01T00:47:16;26.95;;;17.85;;
63087;SDS011;49173;43.164;27.786;2023-01-01T00:49:42;27.88;;;17.40;;
63087;SDS011;49173;43.164;27.786;2023-01-01T00:52:07;25.33;;;16.13;;
63087;SDS011;49173;43.164;27.786;2023-01-01T00:54:33;27.30;;;17.52;;
63087;SDS011;49173;43.164;27.786;2023-01-01T00:56:59;29.45;;;18.48;;
63087;SDS011;49173;43.164;27.786;2023-01-01T00:59:25;27.75;;;18.13;;
63087;SDS011;49173;43.164;27.786;2023-01-01T01:01:50;30.17;;;18.00;;
63087;SDS011;49173;43.164;27.786;2023-01-01T01:04:16;30.33;;;18.80;;
63087;SDS011;49173;43.164;27.786;2023-01-01T01:06:42;28.48;;;17.75;;
63087;SDS011;49173;43.164;27.786;2023-01-01T01:09:07;25.88;;;15.75;;
63087;SDS011;49173;43.164;27.786;2023-01-01T01:11:33;25.38;;;17.40;;
63087;SDS011;49173;43.164;27.786;2023-01-01T01:13:59;30.48;;;17.90;;
63087;SDS011;49173;43.164;27.786;2023-01-01T01:16:32;31.02;;;18.38;;
63087;SDS011;49173;43.164;27.786;2023-01-01T01:19:00;28.88;;;19.52;;
63087;SDS011;49173;43.164;27.786;2023-01-01T01:21:28;30.73;;;20.33;;
63087;SDS011;49173;43.164;27.786;2023-01-01T01:23:58;32.88;;;22.70;;
63087;SDS011;49173;43.164;27.786;2023-01-01T01:26:27;36.22;;;22.52;;
63087;SDS011;49173;43.164;27.786;2023-01-01T01:28:55;33.95;;;22.15;;
63087;SDS011;49173;43.164;27.786;2023-01-01T01:31:22;34.63;;;22.52;;
63087;SDS011;49173;43.164;27.786;2023-01-01T01:36:17;24.58;;;16.75;;
63087;SDS011;49173;43.164;27.786;2023-01-01T01:38:43;26.25;;;17.77;;
63087;SDS011;49173;43.164;27.786;2023-01-01T01:41:11;25.88;;;16.45;;
63087;SDS011;49173;43.164;27.786;2023-01-01T01:48:40;24.02;;;16.70;;
63087;SDS011;49173;43.164;27.786;2023-01-01T01:51:10;29.00;;;17.15;;
63087;SDS011;49173;43.164;27.786;2023-01-01T01:53:40;28.85;;;17.27;;
63087;SDS011;49173;43.164;27.786;2023-01-01T01:56:12;34.35;;;21.48;;
63087;SDS011;49173;43.164;27.786;2023-01-01T01:58:44;34.97;;;23.52;;
63087;SDS011;49173;43.164;27.786;2023-01-01T02:01:10;32.72;;;20.52;;
63087;SDS011;49173;43.164;27.786;2023-01-01T02:03:39;31.10;;;20.92;;
63087;SDS011;49173;43.164;27.786;2023-01-01T02:06:09;30.52;;;21.40;;
63087;SDS011;49173;43.164;27.786;2023-01-01T02:08:36;36.80;;;23.50;;
63087;SDS011;49173;43.164;27.786;2023-01-01T02:11:02;39.13;;;25.02;;
63087;SDS011;49173;43.164;27.786;2023-01-01T02:13:28;30.88;;;20.60;;
63087;SDS011;49173;43.164;27.786;2023-01-01T02:18:43;25.98;;;16.60;;
63087;SDS011;49173;43.164;27.786;2023-01-01T02:21:18;25.83;;;16.83;;
63087;SDS011;49173;43.164;27.786;2023-01-01T02:31:46;24.20;;;14.63;;
63087;SDS011;49173;43.164;27.786;2023-01-01T02:34:18;28.48;;;18.38;;
63087;SDS011;49173;43.164;27.786;2023-01-01T02:36:50;35.90;;;19.95;;
63087;SDS011;49173;43.164;27.786;2023-01-01T02:39:20;26.05;;;18.42;;
63087;SDS011;49173;43.164;27.786;2023-01-01T02:41:49;30.75;;;20.50;;
63087;SDS011;49173;43.164;27.786;2023-01-01T02:44:18;24.45;;;18.27;;
63087;SDS011;49173;43.164;27.786;2023-01-01T02:46:49;26.80;;;18.35;;
63087;SDS011;49173;43.164;27.786;2023-01-01T02:49:14;25.02;;;17.70;;
63087;SDS011;49173;43.164;27.786;2023-01-01T02:54:32;41.35;;;24.17;;
63087;SDS011;49173;43.164;27.786;2023-01-01T02:57:08;32.58;;;20.98;;
63087;SDS011;49173;43.164;27.786;2023-01-01T03:03:02;27.45;;;20.20;;
63087;SDS011;49173;43.164;27.786;2023-01-01T03:05:39;27.20;;;17.73;;
63087;SDS011;49173;43.164;27.786;2023-01-01T03:08:29;26.88;;;18.40;;
63087;SDS011;49173;43.164;27.786;2023-01-01T03:11:17;22.55;;;15.40;;
63087;SDS011;49173;43.164;27.786;2023-01-01T03:16:33;17.25;;;12.57;;
63087;SDS011;49173;43.164;27.786;2023-01-01T03:22:09;14.57;;;10.55;;
63087;SDS011;49173;43.164;27.786;2023-01-01T03:24:44;16.58;;;9.60;;
63087;SDS011;49173;43.164;27.786;2023-01-01T03:27:18;14.63;;;9.73;;
63087;SDS011;49173;43.164;27.786;2023-01-01T03:29:48;16.42;;;9.63;;
63087;SDS011;49173;43.164;27.786;2023-01-01T03:32:18;15.68;;;10.10;;
63087;SDS011;49173;43.164;27.786;2023-01-01T03:35:14;18.98;;;10.63;;
63087;SDS011;49173;43.164;27.786;2023-01-01T03:37:42;16.67;;;11.45;;
63087;SDS011;49173;43.164;27.786;2023-01-01T03:40:12;18.88;;;13.10;;
63087;SDS011;49173;43.164;27.786;2023-01-01T03:42:40;20.85;;;14.15;;
63087;SDS011;49173;43.164;27.786;2023-01-01T03:45:17;21.23;;;13.55;;
63087;SDS011;49173;43.164;27.786;2023-01-01T03:47:48;27.15;;;14.45;;
63087;SDS011;49173;43.164;27.786;2023-01-01T03:50:14;21.77;;;14.13;;
63087;SDS011;49173;43.164;27.786;2023-01-01T03:52:50;19.38;;;12.73;;
63087;SDS011;49173;43.164;27.786;2023-01-01T03:55:30;19.92;;;13.43;;
63087;SDS011;49173;43.164;27.786;2023-01-01T04:01:00;25.25;;;15.98;;
63087;SDS011;49173;43.164;27.786;2023-01-01T04:03:33;18.77;;;13.45;;
63087;SDS011;49173;43.164;27.786;2023-01-01T04:06:02;22.35;;;13.48;;
63087;SDS011;49173;43.164;27.786;2023-01-01T04:08:30;16.33;;;11.80;;
63087;SDS011;49173;43.164;27.786;2023-01-01T04:10:58;22.57;;;12.27;;
63087;SDS011;49173;43.164;27.786;2023-01-01T04:13:48;19.67;;;13.07;;
63087;SDS011;49173;43.164;27.786;2023-01-01T04:16:13;17.95;;;12.27;;
63087;SDS011;49173;43.164;27.786;2023-01-01T04:18:39;19.52;;;12.98;;
63087;SDS011;49173;43.164;27.786;2023-01-01T04:21:05;17.90;;;12.00;;
63087;SDS011;49173;43.164;27.786;2023-01-01T04:23:31;17.65;;;12.05;;
63087;SDS011;49173;43.164;27.786;2023-01-01T04:25:56;18.92;;;12.32;;
63087;SDS011;49173;43.164;27.786;2023-01-01T04:28:23;17.10;;;11.35;;
63087;SDS011;49173;43.164;27.786;2023-01-01T04:30:49;18.67;;;10.82;;
63087;SDS011;49173;43.164;27.786;2023-01-01T04:33:15;18.48;;;10.85;;
63087;SDS011;49173;43.164;27.786;2023-01-01T04:35:41;14.43;;;10.18;;
63087;SDS011;49173;43.164;27.786;2023-01-01T04:38:11;16.08;;;11.13;;
63087;SDS011;49173;43.164;27.786;2023-01-01T04:40:38;15.40;;;10.43;;
63087;SDS011;49173;43.164;27.786;2023-01-01T04:43:04;14.15;;;10.43;;
63087;SDS011;49173;43.164;27.786;2023-01-01T04:45:30;15.43;;;10.18;;
63087;SDS011;49173;43.164;27.786;2023-01-01T04:47:55;15.95;;;11.00;;
63087;SDS011;49173;43.164;27.786;2023-01-01T04:50:21;14.15;;;9.25;;
63087;SDS011;49173;43.164;27.786;2023-01-01T04:52:47;15.13;;;10.43;;
63087;SDS011;49173;43.164;27.786;2023-01-01T04:55:15;15.55;;;10.40;;
63087;SDS011;49173;43.164;27.786;2023-01-01T04:57:41;16.67;;;11.20;;
63087;SDS011;49173;43.164;27.786;2023-01-01T05:00:07;25.02;;;13.18;;
63087;SDS011;49173;43.164;27.786;2023-01-01T05:02:33;65.72;;;24.42;;
63087;SDS011;49173;43.164;27.786;2023-01-01T05:04:59;223.20;;;65.57;;
63087;SDS011;49173;43.164;27.786;2023-01-01T05:07:25;173.20;;;52.95;;
63087;SDS011;49173;43.164;27.786;2023-01-01T05:09:50;81.40;;;28.52;;
63087;SDS011;49173;43.164;27.786;2023-01-01T05:12:16;47.53;;;23.98;;
63087;SDS011;49173;43.164;27.786;2023-01-01T05:14:42;39.83;;;21.25;;
63087;SDS011;49173;43.164;27.786;2023-01-01T05:17:07;46.67;;;21.05;;
63087;SDS011;49173;43.164;27.786;2023-01-01T05:19:33;43.80;;;21.15;;
63087;SDS011;49173;43.164;27.786;2023-01-01T05:21:59;45.85;;;19.67;;
63087;SDS011;49173;43.164;27.786;2023-01-01T05:24:25;36.35;;;18.50;;
63087;SDS011;49173;43.164;27.786;2023-01-01T05:26:50;33.22;;;17.90;;
63087;SDS011;49173;43.164;27.786;2023-01-01T05:29:17;23.23;;;15.23;;
63087;SDS011;49173;43.164;27.786;2023-01-01T05:31:44;27.58;;;17.48;;
63087;SDS011;49173;43.164;27.786;2023-01-01T05:34:10;28.83;;;17.13;;
63087;SDS011;49173;43.164;27.786;2023-01-01T05:36:36;27.80;;;17.30;;
63087;SDS011;49173;43.164;27.786;2023-01-01T05:39:06;27.92;;;17.08;;
63087;SDS011;49173;43.164;27.786;2023-01-01T05:41:33;26.42;;;17.83;;
63087;SDS011;49173;43.164;27.786;2023-01-01T05:44:00;29.02;;;16.85;;
63087;SDS011;49173;43.164;27.786;2023-01-01T05:46:27;40.08;;;23.40;;
63087;SDS011;49173;43.164;27.786;2023-01-01T05:48:53;46.55;;;26.02;;
63087;SDS011;49173;43.164;27.786;2023-01-01T05:51:19;57.30;;;31.30;;
63087;SDS011;49173;43.164;27.786;2023-01-01T05:53:47;58.30;;;31.08;;
63087;SDS011;49173;43.164;27.786;2023-01-01T05:56:14;47.22;;;28.17;;
63087;SDS011;49173;43.164;27.786;2023-01-01T05:58:41;29.85;;;19.17;;
63087;SDS011;49173;43.164;27.786;2023-01-01T06:01:10;32.95;;;19.77;;
63087;SDS011;49173;43.164;27.786;2023-01-01T06:03:38;31.48;;;18.85;;
63087;SDS011;49173;43.164;27.786;2023-01-01T06:06:05;40.33;;;23.73;;
63087;SDS011;49173;43.164;27.786;2023-01-01T06:08:36;39.20;;;22.10;;
63087;SDS011;49173;43.164;27.786;2023-01-01T06:11:02;27.23;;;16.73;;
63087;SDS011;49173;43.164;27.786;2023-01-01T06:13:30;22.50;;;13.27;;
63087;SDS011;49173;43.164;27.786;2023-01-01T06:15:56;18.83;;;12.57;;
63087;SDS011;49173;43.164;27.786;2023-01-01T06:18:23;25.95;;;12.05;;
63087;SDS011;49173;43.164;27.786;2023-01-01T06:20:50;18.20;;;11.98;;
63087;SDS011;49173;43.164;27.786;2023-01-01T06:23:17;17.10;;;11.30;;
63087;SDS011;49173;43.164;27.786;2023-01-01T06:25:43;24.13;;;15.27;;
63087;SDS011;49173;43.164;27.786;2023-01-01T06:28:09;35.35;;;19.65;;
63087;SDS011;49173;43.164;27.786;2023-01-01T06:30:35;50.88;;;21.95;;
63087;SDS011;49173;43.164;27.786;2023-01-01T06:33:02;37.35;;;21.65;;
63087;SDS011;49173;43.164;27.786;2023-01-01T06:35:29;39.72;;;21.40;;
63087;SDS011;49173;43.164;27.786;2023-01-01T06:37:54;35.13;;;21.48;;
63087;SDS011;49173;43.164;27.786;2023-01-01T06:40:22;57.05;;;29.95;;
63087;SDS011;49173;43.164;27.786;2023-01-01T06:42:48;75.32;;;46.08;;
63087;SDS011;49173;43.164;27.786;2023-01-01T06:45:14;51.08;;;33.80;;
63087;SDS011;49173;43.164;27.786;2023-01-01T06:47:40;25.20;;;16.52;;
63087;SDS011;49173;43.164;27.786;2023-01-01T06:50:06;27.25;;;18.48;;
63087;SDS011;49173;43.164;27.786;2023-01-01T06:52:32;34.30;;;23.10;;
63087;SDS011;49173;43.164;27.786;2023-01-01T06:54:58;32.85;;;21.17;;
63087;SDS011;49173;43.164;27.786;2023-01-01T06:57:24;46.03;;;33.65;;
63087;SDS011;49173;43.164;27.786;2023-01-01T06:59:50;38.83;;;27.83;;
63087;SDS011;49173;43.164;27.786;2023-01-01T07:02:16;38.78;;;28.33;;
63087;SDS011;49173;43.164;27.786;2023-01-01T07:04:42;29.40;;;21.27;;
63087;SDS011;49173;43.164;27.786;2023-01-01T07:07:08;25.77;;;16.48;;
63087;SDS011;49173;43.164;27.786;2023-01-01T07:09:33;22.17;;;13.45;;
63087;SDS011;49173;43.164;27.786;2023-01-01T07:11:59;18.90;;;12.93;;
63087;SDS011;49173;43.164;27.786;2023-01-01T07:14:25;25.45;;;18.27;;
63087;SDS011;49173;43.164;27.786;2023-01-01T07:16:51;31.88;;;21.30;;
63087;SDS011;49173;43.164;27.786;2023-01-01T07:19:16;21.10;;;14.02;;
63087;SDS011;49173;43.164;27.786;2023-01-01T07:21:43;27.25;;;17.30;;
63087;SDS011;49173;43.164;27.786;2023-01-01T07:24:13;21.08;;;15.25;;
63087;SDS011;49173;43.164;27.786;2023-01-01T07:26:40;23.88;;;16.67;;
63087;SDS011;49173;43.164;27.786;2023-01-01T07:29:06;29.83;;;21.05;;
63087;SDS011;49173;43.164;27.786;2023-01-01T07:31:41;31.33;;;20.45;;
63087;SDS011;49173;43.164;27.786;2023-01-01T07:34:10;33.03;;;22.45;;
63087;SDS011;49173;43.164;27.786;2023-01-01T07:36:37;33.08;;;22.42;;
63087;SDS011;49173;43.164;27.786;2023-01-01T07:39:03;36.65;;;24.35;;
63087;SDS011;49173;43.164;27.786;2023-01-01T07:41:29;41.00;;;26.13;;
63087;SDS011;49173;43.164;27.786;2023-01-01T07:43:55;58.83;;;35.85;;
63087;SDS011;49173;43.164;27.786;2023-01-01T07:46:20;50.13;;;32.63;;
63087;SDS011;49173;43.164;27.786;2023-01-01T07:48:46;44.17;;;29.17;;
63087;SDS011;49173;43.164;27.786;2023-01-01T07:51:12;33.88;;;22.77;;
63087;SDS011;49173;43.164;27.786;2023-01-01T07:53:38;24.85;;;16.15;;
63087;SDS011;49173;43.164;27.786;2023-01-01T07:56:04;27.48;;;17.60;;
63087;SDS011;49173;43.164;27.786;2023-01-01T07:58:30;33.17;;;21.70;;
63087;SDS011;49173;43.164;27.786;2023-01-01T08:00:55;37.33;;;23.77;;
63087;SDS011;49173;43.164;27.786;2023-01-01T08:03:21;28.13;;;18.23;;
63087;SDS011;49173;43.164;27.786;2023-01-01T08:05:47;36.17;;;20.08;;
63087;SDS011;49173;43.164;27.786;2023-01-01T08:08:12;31.40;;;18.35;;
63087;SDS011;49173;43.164;27.786;2023-01-01T08:10:38;23.60;;;13.73;;
63087;SDS011;49173;43.164;27.786;2023-01-01T08:13:04;27.45;;;14.52;;
63087;SDS011;49173;43.164;27.786;2023-01-01T08:15:34;24.08;;;13.52;;
63087;SDS011;49173;43.164;27.786;2023-01-01T08:18:01;24.17;;;14.20;;
63087;SDS011;49173;43.164;27.786;2023-01-01T08:20:30;38.72;;;17.42;;
63087;SDS011;49173;43.164;27.786;2023-01-01T08:22:57;39.60;;;19.00;;
63087;SDS011;49173;43.164;27.786;2023-01-01T08:25:23;36.20;;;17.60;;
63087;SDS011;49173;43.164;27.786;2023-01-01T08:27:48;29.48;;;18.33;;
63087;SDS011;49173;43.164;27.786;2023-01-01T08:30:15;26.10;;;16.67;;
63087;SDS011;49173;43.164;27.786;2023-01-01T08:32:41;32.45;;;20.98;;
63087;SDS011;49173;43.164;27.786;2023-01-01T08:35:08;31.95;;;20.90;;
63087;SDS011;49173;43.164;27.786;2023-01-01T08:37:34;32.83;;;19.10;;
63087;SDS011;49173;43.164;27.786;2023-01-01T08:40:00;33.22;;;20.50;;
63087;SDS011;49173;43.164;27.786;2023-01-01T08:42:25;30.65;;;17.25;;
63087;SDS011;49173;43.164;27.786;2023-01-01T08:44:52;22.58;;;14.35;;
63087;SDS011;49173;43.164;27.786;2023-01-01T08:47:18;21.70;;;12.07;;
63087;SDS011;49173;43.164;27.786;2023-01-01T08:49:49;21.10;;;13.30;;
63087;SDS011;49173;43.164;27.786;2023-01-01T08:52:15;44.17;;;20.90;;
63087;SDS011;49173;43.164;27.786;2023-01-01T08:54:42;32.78;;;17.10;;
63087;SDS011;49173;43.164;27.786;2023-01-01T08:57:08;19.48;;;11.60;;
63087;SDS011;49173;43.164;27.786;2023-01-01T08:59:34;16.77;;;9.90;;
63087;SDS011;49173;43.164;27.786;2023-01-01T09:02:00;18.27;;;11.18;;
63087;SDS011;49173;43.164;27.786;2023-01-01T09:04:29;20.23;;;14.00;;
63087;SDS011;49173;43.164;27.786;2023-01-01T09:06:55;22.02;;;13.18;;
63087;SDS011;49173;43.164;27.786;2023-01-01T09:09:21;19.38;;;12.80;;
63087;SDS011;49173;43.164;27.786;2023-01-01T09:11:50;24.08;;;14.80;;
63087;SDS011;49173;43.164;27.786;2023-01-01T09:14:18;28.10;;;17.63;;
63087;SDS011;49173;43.164;27.786;2023-01-01T09:16:44;27.13;;;17.23;;
63087;SDS011;49173;43.164;27.786;2023-01-01T09:19:10;27.65;;;17.00;;
63087;SDS011;49173;43.164;27.786;2023-01-01T09:21:36;24.92;;;17.13;;
63087;SDS011;49173;43.164;27.786;2023-01-01T09:24:06;25.05;;;17.00;;
63087;SDS011;49173;43.164;27.786;2023-01-01T09:26:32;31.55;;;18.67;;
63087;SDS011;49173;43.164;27.786;2023-01-01T09:28:58;31.23;;;18.45;;
63087;SDS011;49173;43.164;27.786;2023-01-01T09:31:23;22.67;;;15.98;;
63087;SDS011;49173;43.164;27.786;2023-01-01T09:33:49;20.77;;;14.80;;
63087;SDS011;49173;43.164;27.786;2023-01-01T09:38:51;22.08;;;14.32;;
63087;SDS011;49173;43.164;27.786;2023-01-01T09:46:30;20.77;;;13.77;;
63087;SDS011;49173;43.164;27.786;2023-01-01T09:49:00;16.42;;;11.48;;
63087;SDS011;49173;43.164;27.786;2023-01-01T09:51:31;17.63;;;11.27;;
63087;SDS011;49173;43.164;27.786;2023-01-01T09:57:06;15.48;;;11.30;;
63087;SDS011;49173;43.164;27.786;2023-01-01T09:59:35;16.95;;;10.70;;
63087;SDS011;49173;43.164;27.786;2023-01-01T10:07:37;23.50;;;19.85;;
63087;SDS011;49173;43.164;27.786;2023-01-01T10:13:28;19.50;;;12.63;;
63087;SDS011;49173;43.164;27.786;2023-01-01T10:16:09;17.20;;;10.95;;
63087;SDS011;49173;43.164;27.786;2023-01-01T10:18:48;14.77;;;11.40;;
63087;SDS011;49173;43.164;27.786;2023-01-01T10:24:01;17.83;;;12.07;;
63087;SDS011;49173;43.164;27.786;2023-01-01T10:26:30;19.88;;;12.02;;
63087;SDS011;49173;43.164;27.786;2023-01-01T10:31:34;13.75;;;10.32;;
63087;SDS011;49173;43.164;27.786;2023-01-01T10:34:15;11.32;;;8.20;;
63087;SDS011;49173;43.164;27.786;2023-01-01T10:36:51;14.25;;;9.18;;
63087;SDS011;49173;43.164;27.786;2023-01-01T10:39:19;11.18;;;6.85;;
63087;SDS011;49173;43.164;27.786;2023-01-01T10:41:45;9.18;;;6.53;;
63087;SDS011;49173;43.164;27.786;2023-01-01T10:44:11;9.77;;;6.55;;
63087;SDS011;49173;43.164;27.786;2023-01-01T10:46:48;8.57;;;6.40;;
63087;SDS011;49173;43.164;27.786;2023-01-01T10:49:17;10.82;;;7.55;;
63087;SDS011;49173;43.164;27.786;2023-01-01T10:51:44;9.18;;;6.50;;
63087;SDS011;49173;43.164;27.786;2023-01-01T10:56:43;8.68;;;5.90;;
63087;SDS011;49173;43.164;27.786;2023-01-01T11:04:43;7.28;;;4.30;;
63087;SDS011;49173;43.164;27.786;2023-01-01T11:07:12;6.63;;;4.80;;
63087;SDS011;49173;43.164;27.786;2023-01-01T11:09:59;5.22;;;3.20;;
63087;SDS011;49173;43.164;27.786;2023-01-01T11:12:28;5.10;;;2.75;;
63087;SDS011;49173;43.164;27.786;2023-01-01T11:14:58;5.22;;;3.10;;
63087;SDS011;49173;43.164;27.786;2023-01-01T11:17:28;4.50;;;2.80;;
63087;SDS011;49173;43.164;27.786;2023-01-01T11:19:57;5.88;;;3.30;;
63087;SDS011;49173;43.164;27.786;2023-01-01T11:22:43;6.55;;;3.67;;
63087;SDS011;49173;43.164;27.786;2023-01-01T11:27:46;7.45;;;3.50;;
63087;SDS011;49173;43.164;27.786;2023-01-01T11:30:19;7.82;;;5.10;;
63087;SDS011;49173;43.164;27.786;2023-01-01T11:32:49;7.05;;;3.75;;
63087;SDS011;49173;43.164;27.786;2023-01-01T11:35:22;7.97;;;4.82;;
63087;SDS011;49173;43.164;27.786;2023-01-01T11:37:50;6.90;;;5.07;;
63087;SDS011;49173;43.164;27.786;2023-01-01T11:40:22;5.28;;;4.20;;
63087;SDS011;49173;43.164;27.786;2023-01-01T11:42:58;7.50;;;4.20;;
63087;SDS011;49173;43.164;27.786;2023-01-01T11:45:27;6.38;;;4.63;;
63087;SDS011;49173;43.164;27.786;2023-01-01T11:50:54;10.32;;;5.30;;
63087;SDS011;49173;43.164;27.786;2023-01-01T12:01:04;7.20;;;4.68;;
63087;SDS011;49173;43.164;27.786;2023-01-01T12:03:40;8.85;;;5.30;;
63087;SDS011;49173;43.164;27.786;2023-01-01T12:06:36;5.57;;;3.80;;
63087;SDS011;49173;43.164;27.786;2023-01-01T12:09:15;4.45;;;3.20;;
63087;SDS011;49173;43.164;27.786;2023-01-01T12:12:02;5.95;;;3.58;;
63087;SDS011;49173;43.164;27.786;2023-01-01T12:14:32;8.10;;;4.40;;
63087;SDS011;49173;43.164;27.786;2023-01-01T12:22:39;6.25;;;3.22;;
63087;SDS011;49173;43.164;27.786;2023-01-01T12:25:05;5.05;;;3.15;;
63087;SDS011;49173;43.164;27.786;2023-01-01T12:30:30;7.88;;;4.57;;
63087;SDS011;49173;43.164;27.786;2023-01-01T12:38:44;5.78;;;3.78;;
63087;SDS011;49173;43.164;27.786;2023-01-01T12:41:33;4.35;;;3.35;;
63087;SDS011;49173;43.164;27.786;2023-01-01T12:44:27;6.60;;;4.15;;
63087;SDS011;49173;43.164;27.786;2023-01-01T12:47:10;6.28;;;4.60;;
63087;SDS011;49173;43.164;27.786;2023-01-01T13:00:59;9.45;;;5.97;;
63087;SDS011;49173;43.164;27.786;2023-01-01T13:03:35;9.57;;;5.32;;
63087;SDS011;49173;43.164;27.786;2023-01-01T13:09:29;8.23;;;4.43;;
63087;SDS011;49173;43.164;27.786;2023-01-01T13:12:06;7.10;;;4.72;;
63087;SDS011;49173;43.164;27.786;2023-01-01T13:14:38;7.78;;;5.22;;
63087;SDS011;49173;43.164;27.786;2023-01-01T13:17:25;8.13;;;4.97;;
63087;SDS011;49173;43.164;27.786;2023-01-01T13:19:57;7.32;;;5.45;;
63087;SDS011;49173;43.164;27.786;2023-01-01T13:25:17;10.95;;;5.97;;
63087;SDS011;49173;43.164;27.786;2023-01-01T13:33:21;11.52;;;6.97;;
63087;SDS011;49173;43.164;27.786;2023-01-01T13:49:38;7.68;;;4.85;;
63087;SDS011;49173;43.164;27.786;2023-01-01T13:55:51;7.70;;;4.93;;
63087;SDS011;49173;43.164;27.786;2023-01-01T14:03:47;9.52;;;5.88;;
63087;SDS011;49173;43.164;27.786;2023-01-01T14:06:24;8.98;;;6.13;;
63087;SDS011;49173;43.164;27.786;2023-01-01T14:09:27;5.95;;;4.45;;
63087;SDS011;49173;43.164;27.786;2023-01-01T14:11:46;8.52;;;4.40;;
63087;SDS011;49173;43.164;27.786;2023-01-01T14:14:25;12.13;;;5.80;;
63087;SDS011;49173;43.164;27.786;2023-01-01T14:16:54;14.45;;;7.75;;
63087;SDS011;49173;43.164;27.786;2023-01-01T14:19:23;10.95;;;6.90;;
63087;SDS011;49173;43.164;27.786;2023-01-01T14:21:50;14.82;;;9.52;;
63087;SDS011;49173;43.164;27.786;2023-01-01T14:24:17;16.58;;;11.90;;
63087;SDS011;49173;43.164;27.786;2023-01-01T14:26:45;21.27;;;12.27;;
63087;SDS011;49173;43.164;27.786;2023-01-01T14:29:23;24.05;;;13.80;;
63087;SDS011;49173;43.164;27.786;2023-01-01T14:31:52;24.75;;;13.27;;
63087;SDS011;49173;43.164;27.786;2023-01-01T14:36:56;15.73;;;10.30;;
63087;SDS011;49173;43.164;27.786;2023-01-01T14:39:34;11.15;;;7.28;;
63087;SDS011;49173;43.164;27.786;2023-01-01T14:42:02;18.40;;;10.00;;
63087;SDS011;49173;43.164;27.786;2023-01-01T14:44:38;18.60;;;10.45;;
63087;SDS011;49173;43.164;27.786;2023-01-01T14:47:25;14.13;;;8.07;;
63087;SDS011;49173;43.164;27.786;2023-01-01T14:50:01;10.65;;;7.10;;
63087;SDS011;49173;43.164;27.786;2023-01-01T14:52:27;12.82;;;6.70;;
63087;SDS011;49173;43.164;27.786;2023-01-01T14:54:56;10.60;;;7.57;;
63087;SDS011;49173;43.164;27.786;2023-01-01T14:57:28;15.60;;;9.50;;
63087;SDS011;49173;43.164;27.786;2023-01-01T14:59:56;9.20;;;6.68;;
63087;SDS011;49173;43.164;27.786;2023-01-01T15:02:23;9.43;;;6.30;;
63087;SDS011;49173;43.164;27.786;2023-01-01T15:04:54;9.05;;;6.10;;
63087;SDS011;49173;43.164;27.786;2023-01-01T15:12:21;9.10;;;6.03;;
63087;SDS011;49173;43.164;27.786;2023-01-01T15:14:48;12.48;;;8.15;;
63087;SDS011;49173;43.164;27.786;2023-01-01T15:17:17;14.32;;;9.85;;
63087;SDS011;49173;43.164;27.786;2023-01-01T15:19:45;14.13;;;8.68;;
63087;SDS011;49173;43.164;27.786;2023-01-01T15:24:49;8.63;;;6.07;;
63087;SDS011;49173;43.164;27.786;2023-01-01T15:27:34;9.30;;;6.15;;
63087;SDS011;49173;43.164;27.786;2023-01-01T15:30:02;11.40;;;7.57;;
63087;SDS011;49173;43.164;27.786;2023-01-01T15:32:31;8.68;;;6.25;;
63087;SDS011;49173;43.164;27.786;2023-01-01T15:34:59;9.13;;;5.80;;
63087;SDS011;49173;43.164;27.786;2023-01-01T15:39:59;9.70;;;7.00;;
63087;SDS011;49173;43.164;27.786;2023-01-01T15:42:46;23.92;;;16.75;;
63087;SDS011;49173;43.164;27.786;2023-01-01T15:56:04;61.92;;;28.50;;
63087;SDS011;49173;43.164;27.786;2023-01-01T15:58:37;46.85;;;23.23;;
63087;SDS011;49173;43.164;27.786;2023-01-01T16:01:10;43.50;;;22.30;;
63087;SDS011;49173;43.164;27.786;2023-01-01T16:03:39;29.02;;;17.52;;
63087;SDS011;49173;43.164;27.786;2023-01-01T16:06:06;26.25;;;15.40;;
63087;SDS011;49173;43.164;27.786;2023-01-01T16:08:32;23.27;;;14.07;;
63087;SDS011;49173;43.164;27.786;2023-01-01T16:10:58;40.78;;;23.83;;
63087;SDS011;49173;43.164;27.786;2023-01-01T16:13:24;16.90;;;12.60;;
63087;SDS011;49173;43.164;27.786;2023-01-01T16:18:18;22.45;;;16.23;;
63087;SDS011;49173;43.164;27.786;2023-01-01T16:20:44;13.50;;;9.55;;
63087;SDS011;49173;43.164;27.786;2023-01-01T16:23:10;19.83;;;13.05;;
63087;SDS011;49173;43.164;27.786;2023-01-01T16:25:37;20.83;;;16.15;;
63087;SDS011;49173;43.164;27.786;2023-01-01T16:28:02;15.05;;;10.38;;
63087;SDS011;49173;43.164;27.786;2023-01-01T16:30:30;12.30;;;9.43;;
63087;SDS011;49173;43.164;27.786;2023-01-01T16:32:57;13.02;;;9.32;;
63087;SDS011;49173;43.164;27.786;2023-01-01T16:35:23;19.25;;;10.85;;
63087;SDS011;49173;43.164;27.786;2023-01-01T16:37:49;13.60;;;9.10;;
63087;SDS011;49173;43.164;27.786;2023-01-01T16:40:15;13.50;;;9.60;;
63087;SDS011;49173;43.164;27.786;2023-01-01T16:42:41;14.85;;;11.27;;
63087;SDS011;49173;43.164;27.786;2023-01-01T16:45:07;19.00;;;13.05;;
63087;SDS011;49173;43.164;27.786;2023-01-01T16:47:40;17.25;;;10.25;;
63087;SDS011;49173;43.164;27.786;2023-01-01T16:50:05;15.60;;;9.88;;
63087;SDS011;49173;43.164;27.786;2023-01-01T16:52:32;10.73;;;8.35;;
63087;SDS011;49173;43.164;27.786;2023-01-01T16:54:57;11.32;;;8.20;;
63087;SDS011;49173;43.164;27.786;2023-01-01T16:57:23;12.18;;;9.23;;
63087;SDS011;49173;43.164;27.786;2023-01-01T16:59:49;13.18;;;9.05;;
63087;SDS011;49173;43.164;27.786;2023-01-01T17:02:14;13.40;;;9.48;;
63087;SDS011;49173;43.164;27.786;2023-01-01T17:04:40;11.27;;;8.43;;
63087;SDS011;49173;43.164;27.786;2023-01-01T17:07:06;14.50;;;8.60;;
63087;SDS011;49173;43.164;27.786;2023-01-01T17:09:32;16.42;;;11.85;;